Etusivu
METAR-TAF:

METAR-TAF

Lentoasemat :

Jämsä, Suomi

Hallin lentoasema

Leveyspiiri: 61-51N, Pituuspiiri: 024-48E, korkeus merenpinnasta: 143 m

Tämänhetkinen sää

Tämä raportti tehtiin 21 minuuttia sitten, kello 06.20 UTC
Tuuli 12 kn pohjoisen/luoteesta
Lämpötila 10°C
Kosteus 100%
Ilmanpaine 1008 hPa
Näkyvyys 10 km tai enemmän
Pilvistä 1000 ft:n korkeudessa

METAR: EFHA 240620Z 34012KT 9999 OVC010 10/10 Q1008

Aika: 09:41 (06:41 UTC)

Sääennuste

Tämä raportti tehtiin 1 tunti ja 10 minuuttia sitten, kello 05.31 UTC
Ennuste voimassa 24. päivästä klo 06 UTC - 24. päivään klo 14 UTC
Tuuli 9 kn pohjoisen/luoteesta
Näkyvyys 10 km tai enemmän
Hajonneita pilviä 1000 ft:n korkeudessa
Ajoittain
24. päivästä klo 06 UTC - 24. päivään klo 08 UTC
Hajonneita pilviä 900 ft:n korkeudessa
Tulossa
24. päivästä klo 08 UTC - 24. päivään klo 10 UTC
Hajanaisia pilviä 1500 ft:n korkeudessa

TAF: EFHA 240531Z 2406/2414 33009KT 9999 BKN010 TEMPO 2406/2408 BKN009 BECMG 2408/2410 SCT015

Säähavainnot ja -ennusteet yli 4000 lentoasemalta (METAR- ja TAF-raportit).

Käytössä olevat sääasemat on merkitty karttaan keltaisilla ja punaisilla pisteillä.

Aseta hiiri pisteen päälle nähdäksesi sääaseman nimen.

Klikkaa sitten nähdäksesi säähavainnot ja -ennusteet.

Kartan vaihtaminen: klikkaa mustalla rastilla varustettuja vihreitä pisteitä, niin voit zoomata sisään; viivalla varustettua vihreää pistettä, niin voit zoomata ulos tai vihreitä nuolia, niin pääset viereisille kartoille.


METAR-TAF: